sensor_id;sensor_type;location;lat;lon;timestamp;P1;durP1;ratioP1;P2;durP2;ratioP2
77262;SDS011;66373;52.334;4.806;2023-08-08T00:00:33;3.42;;;2.13;;
77262;SDS011;66373;52.334;4.806;2023-08-08T00:03:01;4.60;;;2.40;;
77262;SDS011;66373;52.334;4.806;2023-08-08T00:05:28;4.43;;;2.80;;
77262;SDS011;66373;52.334;4.806;2023-08-08T00:07:55;3.20;;;2.60;;
77262;SDS011;66373;52.334;4.806;2023-08-08T00:10:23;4.68;;;2.58;;
77262;SDS011;66373;52.334;4.806;2023-08-08T00:12:50;4.85;;;2.33;;
77262;SDS011;66373;52.334;4.806;2023-08-08T00:15:17;6.82;;;2.70;;
77262;SDS011;66373;52.334;4.806;2023-08-08T00:17:44;3.97;;;2.42;;
77262;SDS011;66373;52.334;4.806;2023-08-08T00:20:11;3.42;;;2.33;;
77262;SDS011;66373;52.334;4.806;2023-08-08T00:22:38;4.05;;;2.40;;
77262;SDS011;66373;52.334;4.806;2023-08-08T00:25:05;3.95;;;2.47;;
77262;SDS011;66373;52.334;4.806;2023-08-08T00:27:35;6.57;;;2.70;;
77262;SDS011;66373;52.334;4.806;2023-08-08T00:30:08;4.05;;;2.20;;
77262;SDS011;66373;52.334;4.806;2023-08-08T00:32:36;3.47;;;2.10;;
77262;SDS011;66373;52.334;4.806;2023-08-08T00:35:03;4.20;;;2.50;;
77262;SDS011;66373;52.334;4.806;2023-08-08T00:37:31;5.10;;;2.42;;
77262;SDS011;66373;52.334;4.806;2023-08-08T00:39:58;2.35;;;2.15;;
77262;SDS011;66373;52.334;4.806;2023-08-08T00:42:25;2.58;;;1.77;;
77262;SDS011;66373;52.334;4.806;2023-08-08T00:44:54;4.15;;;2.45;;
77262;SDS011;66373;52.334;4.806;2023-08-08T00:47:27;3.00;;;2.13;;
77262;SDS011;66373;52.334;4.806;2023-08-08T00:49:54;5.60;;;2.33;;
77262;SDS011;66373;52.334;4.806;2023-08-08T00:52:22;4.50;;;2.25;;
77262;SDS011;66373;52.334;4.806;2023-08-08T00:54:50;6.55;;;2.35;;
77262;SDS011;66373;52.334;4.806;2023-08-08T00:57:20;3.60;;;2.50;;
77262;SDS011;66373;52.334;4.806;2023-08-08T00:59:47;7.78;;;2.58;;
77262;SDS011;66373;52.334;4.806;2023-08-08T01:02:16;3.92;;;2.30;;
77262;SDS011;66373;52.334;4.806;2023-08-08T01:04:43;4.00;;;2.08;;
77262;SDS011;66373;52.334;4.806;2023-08-08T01:07:12;7.65;;;2.30;;
77262;SDS011;66373;52.334;4.806;2023-08-08T01:09:49;3.72;;;2.10;;
77262;SDS011;66373;52.334;4.806;2023-08-08T01:12:21;4.82;;;2.08;;
77262;SDS011;66373;52.334;4.806;2023-08-08T01:14:51;5.10;;;2.47;;
77262;SDS011;66373;52.334;4.806;2023-08-08T01:17:21;4.72;;;2.30;;
77262;SDS011;66373;52.334;4.806;2023-08-08T01:19:51;3.47;;;1.98;;
77262;SDS011;66373;52.334;4.806;2023-08-08T01:22:21;4.82;;;2.30;;
77262;SDS011;66373;52.334;4.806;2023-08-08T01:24:53;5.57;;;2.25;;
77262;SDS011;66373;52.334;4.806;2023-08-08T01:27:22;2.47;;;2.20;;
77262;SDS011;66373;52.334;4.806;2023-08-08T01:29:49;4.55;;;2.15;;
77262;SDS011;66373;52.334;4.806;2023-08-08T01:32:16;2.50;;;1.92;;
77262;SDS011;66373;52.334;4.806;2023-08-08T01:34:43;3.35;;;2.15;;
77262;SDS011;66373;52.334;4.806;2023-08-08T01:37:11;4.82;;;2.10;;
77262;SDS011;66373;52.334;4.806;2023-08-08T01:39:42;3.85;;;2.08;;
77262;SDS011;66373;52.334;4.806;2023-08-08T01:42:13;3.60;;;2.35;;
77262;SDS011;66373;52.334;4.806;2023-08-08T01:44:41;2.80;;;1.85;;
77262;SDS011;66373;52.334;4.806;2023-08-08T01:47:09;2.78;;;2.25;;
77262;SDS011;66373;52.334;4.806;2023-08-08T01:49:36;3.92;;;2.20;;
77262;SDS011;66373;52.334;4.806;2023-08-08T01:52:03;3.85;;;2.60;;
77262;SDS011;66373;52.334;4.806;2023-08-08T01:54:31;3.95;;;2.28;;
77262;SDS011;66373;52.334;4.806;2023-08-08T01:56:58;4.32;;;2.28;;
77262;SDS011;66373;52.334;4.806;2023-08-08T01:59:27;3.53;;;2.05;;
77262;SDS011;66373;52.334;4.806;2023-08-08T02:01:54;3.08;;;2.20;;
77262;SDS011;66373;52.334;4.806;2023-08-08T02:04:21;4.97;;;2.13;;
77262;SDS011;66373;52.334;4.806;2023-08-08T02:06:48;5.47;;;2.10;;
77262;SDS011;66373;52.334;4.806;2023-08-08T02:09:15;3.28;;;2.53;;
77262;SDS011;66373;52.334;4.806;2023-08-08T02:11:41;4.55;;;1.90;;
77262;SDS011;66373;52.334;4.806;2023-08-08T02:14:09;4.75;;;1.75;;
77262;SDS011;66373;52.334;4.806;2023-08-08T02:16:37;7.03;;;2.30;;
77262;SDS011;66373;52.334;4.806;2023-08-08T02:19:05;6.20;;;2.22;;
77262;SDS011;66373;52.334;4.806;2023-08-08T02:21:32;2.90;;;2.25;;
77262;SDS011;66373;52.334;4.806;2023-08-08T02:23:59;4.22;;;2.03;;
77262;SDS011;66373;52.334;4.806;2023-08-08T02:26:26;3.60;;;2.00;;
77262;SDS011;66373;52.334;4.806;2023-08-08T02:28:53;2.28;;;1.83;;
77262;SDS011;66373;52.334;4.806;2023-08-08T02:31:20;2.85;;;1.75;;
77262;SDS011;66373;52.334;4.806;2023-08-08T02:33:49;4.20;;;2.10;;
77262;SDS011;66373;52.334;4.806;2023-08-08T02:36:16;3.55;;;1.83;;
77262;SDS011;66373;52.334;4.806;2023-08-08T02:38:43;2.60;;;1.98;;
77262;SDS011;66373;52.334;4.806;2023-08-08T02:41:11;4.45;;;1.80;;
77262;SDS011;66373;52.334;4.806;2023-08-08T02:43:38;3.65;;;2.08;;
77262;SDS011;66373;52.334;4.806;2023-08-08T02:46:05;3.13;;;2.05;;
77262;SDS011;66373;52.334;4.806;2023-08-08T02:48:32;3.53;;;1.88;;
77262;SDS011;66373;52.334;4.806;2023-08-08T02:51:01;5.60;;;1.98;;
77262;SDS011;66373;52.334;4.806;2023-08-08T02:53:27;2.95;;;1.98;;
77262;SDS011;66373;52.334;4.806;2023-08-08T02:55:54;2.97;;;1.70;;
77262;SDS011;66373;52.334;4.806;2023-08-08T02:58:21;3.33;;;1.77;;
77262;SDS011;66373;52.334;4.806;2023-08-08T03:00:48;4.38;;;1.80;;
77262;SDS011;66373;52.334;4.806;2023-08-08T03:03:17;2.58;;;1.85;;
77262;SDS011;66373;52.334;4.806;2023-08-08T03:05:46;2.88;;;1.67;;
77262;SDS011;66373;52.334;4.806;2023-08-08T03:08:17;4.32;;;2.17;;
77262;SDS011;66373;52.334;4.806;2023-08-08T03:10:44;4.15;;;2.13;;
77262;SDS011;66373;52.334;4.806;2023-08-08T03:13:12;4.45;;;2.00;;
77262;SDS011;66373;52.334;4.806;2023-08-08T03:15:40;3.80;;;2.20;;
77262;SDS011;66373;52.334;4.806;2023-08-08T03:18:07;2.92;;;2.10;;
77262;SDS011;66373;52.334;4.806;2023-08-08T03:20:34;5.05;;;2.03;;
77262;SDS011;66373;52.334;4.806;2023-08-08T03:23:01;3.00;;;1.90;;
77262;SDS011;66373;52.334;4.806;2023-08-08T03:25:30;7.68;;;2.10;;
77262;SDS011;66373;52.334;4.806;2023-08-08T03:27:57;3.63;;;1.60;;
77262;SDS011;66373;52.334;4.806;2023-08-08T03:30:24;4.00;;;2.20;;
77262;SDS011;66373;52.334;4.806;2023-08-08T03:32:52;3.83;;;1.90;;
77262;SDS011;66373;52.334;4.806;2023-08-08T03:35:18;4.47;;;1.80;;
77262;SDS011;66373;52.334;4.806;2023-08-08T03:37:46;1.67;;;1.58;;
77262;SDS011;66373;52.334;4.806;2023-08-08T03:40:13;4.40;;;1.77;;
77262;SDS011;66373;52.334;4.806;2023-08-08T03:42:42;2.65;;;1.85;;
77262;SDS011;66373;52.334;4.806;2023-08-08T03:45:09;4.10;;;1.60;;
77262;SDS011;66373;52.334;4.806;2023-08-08T03:47:36;5.45;;;2.00;;
77262;SDS011;66373;52.334;4.806;2023-08-08T03:50:04;4.63;;;2.10;;
77262;SDS011;66373;52.334;4.806;2023-08-08T03:52:34;2.92;;;1.88;;
77262;SDS011;66373;52.334;4.806;2023-08-08T03:55:03;3.88;;;1.60;;
77262;SDS011;66373;52.334;4.806;2023-08-08T03:57:30;5.18;;;2.38;;
77262;SDS011;66373;52.334;4.806;2023-08-08T03:59:59;6.43;;;1.85;;
77262;SDS011;66373;52.334;4.806;2023-08-08T04:02:26;2.97;;;1.80;;
77262;SDS011;66373;52.334;4.806;2023-08-08T04:04:54;5.15;;;1.85;;
77262;SDS011;66373;52.334;4.806;2023-08-08T04:07:21;2.80;;;1.60;;
77262;SDS011;66373;52.334;4.806;2023-08-08T04:09:48;3.28;;;1.77;;
77262;SDS011;66373;52.334;4.806;2023-08-08T04:12:15;5.90;;;1.77;;
77262;SDS011;66373;52.334;4.806;2023-08-08T04:14:42;4.28;;;1.80;;
77262;SDS011;66373;52.334;4.806;2023-08-08T04:17:10;3.90;;;2.00;;
77262;SDS011;66373;52.334;4.806;2023-08-08T04:19:37;3.42;;;1.77;;
77262;SDS011;66373;52.334;4.806;2023-08-08T04:22:04;4.35;;;1.90;;
77262;SDS011;66373;52.334;4.806;2023-08-08T04:24:31;2.33;;;1.70;;
77262;SDS011;66373;52.334;4.806;2023-08-08T04:26:58;3.63;;;1.85;;
77262;SDS011;66373;52.334;4.806;2023-08-08T04:29:25;4.35;;;1.63;;
77262;SDS011;66373;52.334;4.806;2023-08-08T04:31:52;3.03;;;1.67;;
77262;SDS011;66373;52.334;4.806;2023-08-08T04:34:21;10.32;;;1.75;;
77262;SDS011;66373;52.334;4.806;2023-08-08T04:36:48;2.30;;;1.70;;
77262;SDS011;66373;52.334;4.806;2023-08-08T04:39:15;1.90;;;1.45;;
77262;SDS011;66373;52.334;4.806;2023-08-08T04:41:42;2.10;;;1.88;;
77262;SDS011;66373;52.334;4.806;2023-08-08T04:44:09;4.43;;;1.70;;
77262;SDS011;66373;52.334;4.806;2023-08-08T04:46:35;3.95;;;1.95;;
77262;SDS011;66373;52.334;4.806;2023-08-08T04:49:02;4.38;;;2.03;;
77262;SDS011;66373;52.334;4.806;2023-08-08T04:51:31;2.92;;;1.73;;
77262;SDS011;66373;52.334;4.806;2023-08-08T04:53:59;2.08;;;1.70;;
77262;SDS011;66373;52.334;4.806;2023-08-08T04:56:25;4.03;;;1.77;;
77262;SDS011;66373;52.334;4.806;2023-08-08T04:58:53;2.80;;;1.95;;
77262;SDS011;66373;52.334;4.806;2023-08-08T05:01:20;4.57;;;2.05;;
77262;SDS011;66373;52.334;4.806;2023-08-08T05:03:47;4.35;;;2.00;;
77262;SDS011;66373;52.334;4.806;2023-08-08T05:06:15;3.55;;;2.00;;
77262;SDS011;66373;52.334;4.806;2023-08-08T05:08:43;3.20;;;1.65;;
77262;SDS011;66373;52.334;4.806;2023-08-08T05:11:10;5.45;;;1.80;;
77262;SDS011;66373;52.334;4.806;2023-08-08T05:13:37;3.45;;;1.95;;
77262;SDS011;66373;52.334;4.806;2023-08-08T05:16:04;7.85;;;2.33;;
77262;SDS011;66373;52.334;4.806;2023-08-08T05:18:31;3.17;;;1.70;;
77262;SDS011;66373;52.334;4.806;2023-08-08T05:20:58;3.63;;;1.85;;
77262;SDS011;66373;52.334;4.806;2023-08-08T05:23:25;5.78;;;1.88;;
77262;SDS011;66373;52.334;4.806;2023-08-08T05:25:53;3.78;;;1.88;;
77262;SDS011;66373;52.334;4.806;2023-08-08T05:28:20;4.38;;;1.80;;
77262;SDS011;66373;52.334;4.806;2023-08-08T05:30:47;3.00;;;2.00;;
77262;SDS011;66373;52.334;4.806;2023-08-08T05:33:14;2.60;;;1.90;;
77262;SDS011;66373;52.334;4.806;2023-08-08T05:35:41;4.07;;;2.10;;
77262;SDS011;66373;52.334;4.806;2023-08-08T05:38:08;4.15;;;2.20;;
77262;SDS011;66373;52.334;4.806;2023-08-08T05:40:35;1.88;;;1.73;;
77262;SDS011;66373;52.334;4.806;2023-08-08T05:43:04;3.88;;;1.83;;
77262;SDS011;66373;52.334;4.806;2023-08-08T05:45:31;3.63;;;1.73;;
77262;SDS011;66373;52.334;4.806;2023-08-08T05:47:58;3.88;;;2.00;;
77262;SDS011;66373;52.334;4.806;2023-08-08T05:50:26;3.70;;;1.77;;
77262;SDS011;66373;52.334;4.806;2023-08-08T05:52:53;2.60;;;1.60;;
77262;SDS011;66373;52.334;4.806;2023-08-08T05:55:20;3.88;;;1.90;;
77262;SDS011;66373;52.334;4.806;2023-08-08T05:57:47;2.15;;;1.83;;
77262;SDS011;66373;52.334;4.806;2023-08-08T06:00:16;2.80;;;2.08;;
77262;SDS011;66373;52.334;4.806;2023-08-08T06:02:43;2.42;;;1.88;;
77262;SDS011;66373;52.334;4.806;2023-08-08T06:05:10;4.65;;;2.38;;
77262;SDS011;66373;52.334;4.806;2023-08-08T06:07:38;2.70;;;1.75;;
77262;SDS011;66373;52.334;4.806;2023-08-08T06:10:05;3.63;;;1.75;;
77262;SDS011;66373;52.334;4.806;2023-08-08T06:12:33;3.28;;;1.80;;
77262;SDS011;66373;52.334;4.806;2023-08-08T06:15:00;4.45;;;2.10;;
77262;SDS011;66373;52.334;4.806;2023-08-08T06:17:30;4.97;;;1.90;;
77262;SDS011;66373;52.334;4.806;2023-08-08T06:19:57;2.65;;;1.55;;
77262;SDS011;66373;52.334;4.806;2023-08-08T06:22:24;1.83;;;1.55;;
77262;SDS011;66373;52.334;4.806;2023-08-08T06:24:51;4.97;;;1.80;;
77262;SDS011;66373;52.334;4.806;2023-08-08T06:27:18;3.83;;;1.83;;
77262;SDS011;66373;52.334;4.806;2023-08-08T06:29:45;6.35;;;2.33;;
77262;SDS011;66373;52.334;4.806;2023-08-08T06:32:12;4.05;;;2.20;;
77262;SDS011;66373;52.334;4.806;2023-08-08T06:34:41;4.53;;;1.60;;
77262;SDS011;66373;52.334;4.806;2023-08-08T06:37:07;4.85;;;1.55;;
77262;SDS011;66373;52.334;4.806;2023-08-08T06:39:35;3.92;;;1.60;;
77262;SDS011;66373;52.334;4.806;2023-08-08T06:42:04;2.17;;;1.70;;
77262;SDS011;66373;52.334;4.806;2023-08-08T06:44:41;2.60;;;1.40;;
77262;SDS011;66373;52.334;4.806;2023-08-08T06:47:09;4.18;;;1.63;;
77262;SDS011;66373;52.334;4.806;2023-08-08T06:49:36;2.38;;;1.60;;
77262;SDS011;66373;52.334;4.806;2023-08-08T06:52:05;3.20;;;1.63;;
77262;SDS011;66373;52.334;4.806;2023-08-08T06:54:32;1.42;;;1.33;;
77262;SDS011;66373;52.334;4.806;2023-08-08T06:56:59;3.25;;;1.70;;
77262;SDS011;66373;52.334;4.806;2023-08-08T06:59:27;1.45;;;1.35;;
77262;SDS011;66373;52.334;4.806;2023-08-08T07:01:54;2.17;;;1.73;;
77262;SDS011;66373;52.334;4.806;2023-08-08T07:04:22;2.78;;;1.60;;
77262;SDS011;66373;52.334;4.806;2023-08-08T07:06:49;3.83;;;1.70;;
77262;SDS011;66373;52.334;4.806;2023-08-08T07:09:18;3.78;;;1.48;;
77262;SDS011;66373;52.334;4.806;2023-08-08T07:11:45;3.55;;;1.63;;
77262;SDS011;66373;52.334;4.806;2023-08-08T07:14:12;1.58;;;1.45;;
77262;SDS011;66373;52.334;4.806;2023-08-08T07:16:38;3.40;;;1.50;;
77262;SDS011;66373;52.334;4.806;2023-08-08T07:19:06;2.92;;;1.60;;
77262;SDS011;66373;52.334;4.806;2023-08-08T07:21:32;1.63;;;1.52;;
77262;SDS011;66373;52.334;4.806;2023-08-08T07:24:00;3.08;;;1.60;;
77262;SDS011;66373;52.334;4.806;2023-08-08T07:26:29;3.03;;;1.83;;
77262;SDS011;66373;52.334;4.806;2023-08-08T07:28:56;2.60;;;1.60;;
77262;SDS011;66373;52.334;4.806;2023-08-08T07:31:23;2.63;;;1.52;;
77262;SDS011;66373;52.334;4.806;2023-08-08T07:33:51;1.70;;;1.30;;
77262;SDS011;66373;52.334;4.806;2023-08-08T07:36:17;5.40;;;1.70;;
77262;SDS011;66373;52.334;4.806;2023-08-08T07:38:44;2.85;;;1.30;;
77262;SDS011;66373;52.334;4.806;2023-08-08T07:41:11;2.00;;;1.33;;
77262;SDS011;66373;52.334;4.806;2023-08-08T07:43:40;8.13;;;1.27;;
77262;SDS011;66373;52.334;4.806;2023-08-08T07:46:07;8.60;;;1.63;;
77262;SDS011;66373;52.334;4.806;2023-08-08T07:48:34;3.78;;;1.80;;
77262;SDS011;66373;52.334;4.806;2023-08-08T07:51:01;2.83;;;1.48;;
77262;SDS011;66373;52.334;4.806;2023-08-08T07:53:28;4.47;;;1.63;;
77262;SDS011;66373;52.334;4.806;2023-08-08T07:55:55;3.95;;;1.92;;
77262;SDS011;66373;52.334;4.806;2023-08-08T07:58:22;2.63;;;1.40;;
77262;SDS011;66373;52.334;4.806;2023-08-08T08:00:53;6.47;;;1.70;;
77262;SDS011;66373;52.334;4.806;2023-08-08T08:03:22;2.25;;;1.42;;
77262;SDS011;66373;52.334;4.806;2023-08-08T08:05:49;3.70;;;1.60;;
77262;SDS011;66373;52.334;4.806;2023-08-08T08:08:18;2.28;;;1.60;;
77262;SDS011;66373;52.334;4.806;2023-08-08T08:11:00;2.42;;;1.65;;
77262;SDS011;66373;52.334;4.806;2023-08-08T08:13:27;5.22;;;1.58;;
77262;SDS011;66373;52.334;4.806;2023-08-08T08:15:56;3.60;;;1.73;;
77262;SDS011;66373;52.334;4.806;2023-08-08T08:18:23;2.25;;;1.23;;
77262;SDS011;66373;52.334;4.806;2023-08-08T08:20:50;2.55;;;1.40;;
77262;SDS011;66373;52.334;4.806;2023-08-08T08:23:17;2.92;;;1.50;;
77262;SDS011;66373;52.334;4.806;2023-08-08T08:25:44;2.28;;;1.70;;
77262;SDS011;66373;52.334;4.806;2023-08-08T08:28:11;1.30;;;1.20;;
77262;SDS011;66373;52.334;4.806;2023-08-08T08:30:39;2.22;;;1.63;;
77262;SDS011;66373;52.334;4.806;2023-08-08T08:33:07;1.95;;;1.50;;
77262;SDS011;66373;52.334;4.806;2023-08-08T08:35:34;2.90;;;1.50;;
77262;SDS011;66373;52.334;4.806;2023-08-08T08:38:01;2.38;;;1.30;;
77262;SDS011;66373;52.334;4.806;2023-08-08T08:40:34;3.22;;;1.48;;
77262;SDS011;66373;52.334;4.806;2023-08-08T08:43:13;2.50;;;1.40;;
77262;SDS011;66373;52.334;4.806;2023-08-08T08:45:43;3.67;;;1.60;;
77262;SDS011;66373;52.334;4.806;2023-08-08T08:48:20;3.13;;;1.30;;
77262;SDS011;66373;52.334;4.806;2023-08-08T08:50:48;1.13;;;1.13;;
77262;SDS011;66373;52.334;4.806;2023-08-08T08:53:15;2.00;;;1.30;;
77262;SDS011;66373;52.334;4.806;2023-08-08T08:55:43;3.67;;;1.50;;
77262;SDS011;66373;52.334;4.806;2023-08-08T08:58:13;1.38;;;1.27;;
77262;SDS011;66373;52.334;4.806;2023-08-08T09:00:43;1.63;;;1.40;;
77262;SDS011;66373;52.334;4.806;2023-08-08T09:03:10;2.47;;;1.42;;
77262;SDS011;66373;52.334;4.806;2023-08-08T09:05:39;2.80;;;1.67;;
77262;SDS011;66373;52.334;4.806;2023-08-08T09:08:10;1.50;;;1.40;;
77262;SDS011;66373;52.334;4.806;2023-08-08T09:10:38;2.45;;;1.73;;
77262;SDS011;66373;52.334;4.806;2023-08-08T09:13:05;1.52;;;1.35;;
77262;SDS011;66373;52.334;4.806;2023-08-08T09:15:32;4.07;;;1.20;;
77262;SDS011;66373;52.334;4.806;2023-08-08T09:17:59;1.40;;;1.30;;
77262;SDS011;66373;52.334;4.806;2023-08-08T09:20:26;1.75;;;1.50;;
77262;SDS011;66373;52.334;4.806;2023-08-08T09:22:56;1.70;;;1.60;;
77262;SDS011;66373;52.334;4.806;2023-08-08T09:25:23;2.13;;;1.40;;
77262;SDS011;66373;52.334;4.806;2023-08-08T09:27:52;1.83;;;1.30;;
77262;SDS011;66373;52.334;4.806;2023-08-08T09:30:19;1.90;;;1.40;;
77262;SDS011;66373;52.334;4.806;2023-08-08T09:32:46;2.97;;;1.42;;
77262;SDS011;66373;52.334;4.806;2023-08-08T09:35:16;3.10;;;1.50;;
77262;SDS011;66373;52.334;4.806;2023-08-08T09:37:44;1.70;;;1.60;;
77262;SDS011;66373;52.334;4.806;2023-08-08T09:40:12;4.50;;;1.50;;
77262;SDS011;66373;52.334;4.806;2023-08-08T09:42:41;2.05;;;1.50;;
77262;SDS011;66373;52.334;4.806;2023-08-08T09:45:08;1.52;;;1.30;;
77262;SDS011;66373;52.334;4.806;2023-08-08T09:47:37;3.03;;;1.67;;
77262;SDS011;66373;52.334;4.806;2023-08-08T09:50:04;4.88;;;1.55;;
77262;SDS011;66373;52.334;4.806;2023-08-08T09:52:33;2.10;;;1.20;;
77262;SDS011;66373;52.334;4.806;2023-08-08T09:55:01;4.25;;;1.52;;
77262;SDS011;66373;52.334;4.806;2023-08-08T09:57:31;3.65;;;1.65;;
77262;SDS011;66373;52.334;4.806;2023-08-08T09:59:58;2.50;;;1.50;;
77262;SDS011;66373;52.334;4.806;2023-08-08T10:02:31;2.97;;;1.30;;
77262;SDS011;66373;52.334;4.806;2023-08-08T10:04:59;4.65;;;1.67;;
77262;SDS011;66373;52.334;4.806;2023-08-08T10:07:27;2.92;;;1.40;;
77262;SDS011;66373;52.334;4.806;2023-08-08T10:09:55;1.60;;;1.50;;
77262;SDS011;66373;52.334;4.806;2023-08-08T10:12:22;3.78;;;1.98;;
77262;SDS011;66373;52.334;4.806;2023-08-08T10:14:53;2.78;;;1.48;;
77262;SDS011;66373;52.334;4.806;2023-08-08T10:17:21;5.25;;;1.52;;
77262;SDS011;66373;52.334;4.806;2023-08-08T10:19:51;2.25;;;1.52;;
77262;SDS011;66373;52.334;4.806;2023-08-08T10:22:21;2.10;;;1.67;;
77262;SDS011;66373;52.334;4.806;2023-08-08T10:24:51;1.65;;;1.40;;
77262;SDS011;66373;52.334;4.806;2023-08-08T10:27:30;2.47;;;1.60;;
77262;SDS011;66373;52.334;4.806;2023-08-08T10:30:04;2.95;;;1.70;;
77262;SDS011;66373;52.334;4.806;2023-08-08T10:32:39;1.95;;;1.70;;
77262;SDS011;66373;52.334;4.806;2023-08-08T10:35:08;11.68;;;7.47;;
77262;SDS011;66373;52.334;4.806;2023-08-08T10:37:36;4.85;;;2.88;;
77262;SDS011;66373;52.334;4.806;2023-08-08T10:40:04;8.18;;;5.45;;
77262;SDS011;66373;52.334;4.806;2023-08-08T10:42:40;11.15;;;6.15;;
77262;SDS011;66373;52.334;4.806;2023-08-08T10:45:11;10.75;;;7.63;;
77262;SDS011;66373;52.334;4.806;2023-08-08T10:47:40;10.88;;;7.05;;
77262;SDS011;66373;52.334;4.806;2023-08-08T10:50:08;9.45;;;7.80;;
77262;SDS011;66373;52.334;4.806;2023-08-08T10:52:53;12.35;;;8.48;;
77262;SDS011;66373;52.334;4.806;2023-08-08T10:55:21;10.63;;;7.07;;
77262;SDS011;66373;52.334;4.806;2023-08-08T10:57:57;11.07;;;6.53;;
77262;SDS011;66373;52.334;4.806;2023-08-08T11:00:28;8.05;;;5.63;;
77262;SDS011;66373;52.334;4.806;2023-08-08T11:02:57;10.38;;;6.63;;
77262;SDS011;66373;52.334;4.806;2023-08-08T11:05:25;9.48;;;5.03;;
77262;SDS011;66373;52.334;4.806;2023-08-08T11:07:54;6.45;;;4.82;;
77262;SDS011;66373;52.334;4.806;2023-08-08T11:10:21;6.82;;;4.20;;
77262;SDS011;66373;52.334;4.806;2023-08-08T11:12:53;7.38;;;3.60;;
77262;SDS011;66373;52.334;4.806;2023-08-08T11:15:22;4.43;;;3.45;;
77262;SDS011;66373;52.334;4.806;2023-08-08T11:17:50;3.65;;;2.75;;
77262;SDS011;66373;52.334;4.806;2023-08-08T11:20:18;4.10;;;2.90;;
77262;SDS011;66373;52.334;4.806;2023-08-08T11:22:45;4.80;;;2.90;;
77262;SDS011;66373;52.334;4.806;2023-08-08T11:25:19;3.28;;;2.47;;
77262;SDS011;66373;52.334;4.806;2023-08-08T11:27:49;3.55;;;2.38;;
77262;SDS011;66373;52.334;4.806;2023-08-08T11:30:17;3.08;;;2.30;;
77262;SDS011;66373;52.334;4.806;2023-08-08T11:32:45;4.32;;;1.98;;
77262;SDS011;66373;52.334;4.806;2023-08-08T11:35:16;3.88;;;2.28;;
77262;SDS011;66373;52.334;4.806;2023-08-08T11:37:44;2.80;;;2.00;;
77262;SDS011;66373;52.334;4.806;2023-08-08T11:40:12;2.45;;;1.90;;
77262;SDS011;66373;52.334;4.806;2023-08-08T11:42:54;3.33;;;1.98;;
77262;SDS011;66373;52.334;4.806;2023-08-08T11:45:23;4.32;;;2.05;;
77262;SDS011;66373;52.334;4.806;2023-08-08T11:47:50;3.75;;;2.10;;
77262;SDS011;66373;52.334;4.806;2023-08-08T11:50:20;8.68;;;2.22;;
77262;SDS011;66373;52.334;4.806;2023-08-08T11:52:49;4.38;;;1.90;;
77262;SDS011;66373;52.334;4.806;2023-08-08T11:55:17;2.90;;;1.80;;
77262;SDS011;66373;52.334;4.806;2023-08-08T11:57:48;2.75;;;1.65;;
77262;SDS011;66373;52.334;4.806;2023-08-08T12:00:15;1.90;;;1.70;;
77262;SDS011;66373;52.334;4.806;2023-08-08T12:02:43;2.20;;;1.65;;
77262;SDS011;66373;52.334;4.806;2023-08-08T12:05:12;3.25;;;1.58;;
77262;SDS011;66373;52.334;4.806;2023-08-08T12:07:43;2.15;;;1.60;;
77262;SDS011;66373;52.334;4.806;2023-08-08T12:10:14;3.03;;;1.95;;
77262;SDS011;66373;52.334;4.806;2023-08-08T12:12:43;2.42;;;1.40;;
77262;SDS011;66373;52.334;4.806;2023-08-08T12:15:13;4.47;;;1.98;;
77262;SDS011;66373;52.334;4.806;2023-08-08T12:17:48;2.97;;;1.65;;
77262;SDS011;66373;52.334;4.806;2023-08-08T12:20:19;1.63;;;1.40;;
77262;SDS011;66373;52.334;4.806;2023-08-08T12:22:46;4.80;;;1.65;;
77262;SDS011;66373;52.334;4.806;2023-08-08T12:25:14;3.83;;;1.90;;
77262;SDS011;66373;52.334;4.806;2023-08-08T12:27:41;1.73;;;1.48;;
77262;SDS011;66373;52.334;4.806;2023-08-08T12:30:08;1.75;;;1.58;;
77262;SDS011;66373;52.334;4.806;2023-08-08T12:32:36;1.77;;;1.67;;
77262;SDS011;66373;52.334;4.806;2023-08-08T12:35:03;2.88;;;1.80;;
77262;SDS011;66373;52.334;4.806;2023-08-08T12:37:31;1.65;;;1.33;;
77262;SDS011;66373;52.334;4.806;2023-08-08T12:40:00;1.73;;;1.40;;
77262;SDS011;66373;52.334;4.806;2023-08-08T12:42:27;3.85;;;1.70;;
77262;SDS011;66373;52.334;4.806;2023-08-08T12:44:55;3.78;;;1.75;;
77262;SDS011;66373;52.334;4.806;2023-08-08T12:47:22;2.40;;;1.50;;
77262;SDS011;66373;52.334;4.806;2023-08-08T12:49:49;1.40;;;1.30;;
77262;SDS011;66373;52.334;4.806;2023-08-08T12:52:16;1.88;;;1.60;;
77262;SDS011;66373;52.334;4.806;2023-08-08T12:54:43;2.15;;;1.80;;
77262;SDS011;66373;52.334;4.806;2023-08-08T12:57:14;3.80;;;2.03;;
77262;SDS011;66373;52.334;4.806;2023-08-08T12:59:41;3.55;;;2.60;;
77262;SDS011;66373;52.334;4.806;2023-08-08T13:02:08;5.35;;;2.17;;
77262;SDS011;66373;52.334;4.806;2023-08-08T13:04:37;3.50;;;2.58;;
77262;SDS011;66373;52.334;4.806;2023-08-08T13:07:04;5.43;;;3.20;;
77262;SDS011;66373;52.334;4.806;2023-08-08T13:09:32;3.35;;;2.70;;
77262;SDS011;66373;52.334;4.806;2023-08-08T13:11:59;9.93;;;6.30;;
77262;SDS011;66373;52.334;4.806;2023-08-08T13:14:28;8.45;;;6.45;;
77262;SDS011;66373;52.334;4.806;2023-08-08T13:16:55;14.70;;;8.10;;
77262;SDS011;66373;52.334;4.806;2023-08-08T13:19:22;12.75;;;7.55;;
77262;SDS011;66373;52.334;4.806;2023-08-08T13:21:51;14.30;;;8.35;;
77262;SDS011;66373;52.334;4.806;2023-08-08T13:24:19;10.25;;;7.40;;
77262;SDS011;66373;52.334;4.806;2023-08-08T13:26:48;9.93;;;6.28;;
77262;SDS011;66373;52.334;4.806;2023-08-08T13:29:19;11.27;;;6.45;;
77262;SDS011;66373;52.334;4.806;2023-08-08T13:31:47;12.25;;;6.75;;
77262;SDS011;66373;52.334;4.806;2023-08-08T13:34:14;9.73;;;6.22;;
77262;SDS011;66373;52.334;4.806;2023-08-08T13:36:41;10.30;;;6.72;;
77262;SDS011;66373;52.334;4.806;2023-08-08T13:39:08;10.02;;;6.00;;
77262;SDS011;66373;52.334;4.806;2023-08-08T13:41:35;7.40;;;5.15;;
77262;SDS011;66373;52.334;4.806;2023-08-08T13:44:03;6.90;;;3.92;;
77262;SDS011;66373;52.334;4.806;2023-08-08T13:46:31;4.82;;;3.80;;
77262;SDS011;66373;52.334;4.806;2023-08-08T13:49:05;6.72;;;4.75;;
77262;SDS011;66373;52.334;4.806;2023-08-08T13:53:59;10.68;;;4.55;;
77262;SDS011;66373;52.334;4.806;2023-08-08T13:56:26;6.35;;;4.07;;
77262;SDS011;66373;52.334;4.806;2023-08-08T13:58:53;5.60;;;3.35;;
77262;SDS011;66373;52.334;4.806;2023-08-08T14:01:20;6.07;;;3.05;;
77262;SDS011;66373;52.334;4.806;2023-08-08T14:03:47;6.22;;;3.08;;
77262;SDS011;66373;52.334;4.806;2023-08-08T14:06:15;6.43;;;3.30;;
77262;SDS011;66373;52.334;4.806;2023-08-08T14:08:42;6.82;;;2.60;;
77262;SDS011;66373;52.334;4.806;2023-08-08T14:11:11;2.80;;;2.42;;
77262;SDS011;66373;52.334;4.806;2023-08-08T14:13:40;4.35;;;2.72;;
77262;SDS011;66373;52.334;4.806;2023-08-08T14:16:07;4.40;;;2.45;;
77262;SDS011;66373;52.334;4.806;2023-08-08T14:18:34;4.25;;;2.72;;
77262;SDS011;66373;52.334;4.806;2023-08-08T14:21:01;5.03;;;2.67;;
77262;SDS011;66373;52.334;4.806;2023-08-08T14:23:33;6.10;;;2.47;;
77262;SDS011;66373;52.334;4.806;2023-08-08T14:26:01;5.97;;;2.45;;
77262;SDS011;66373;52.334;4.806;2023-08-08T14:28:28;3.95;;;2.40;;
77262;SDS011;66373;52.334;4.806;2023-08-08T14:30:55;4.45;;;2.67;;
77262;SDS011;66373;52.334;4.806;2023-08-08T14:33:22;2.63;;;1.83;;
77262;SDS011;66373;52.334;4.806;2023-08-08T14:35:49;4.60;;;2.53;;
77262;SDS011;66373;52.334;4.806;2023-08-08T14:38:16;3.42;;;1.90;;
77262;SDS011;66373;52.334;4.806;2023-08-08T14:40:45;4.05;;;2.05;;
77262;SDS011;66373;52.334;4.806;2023-08-08T14:43:12;3.13;;;2.05;;
77262;SDS011;66373;52.334;4.806;2023-08-08T14:45:39;2.58;;;1.92;;
77262;SDS011;66373;52.334;4.806;2023-08-08T14:48:06;3.65;;;2.33;;
77262;SDS011;66373;52.334;4.806;2023-08-08T14:50:33;4.78;;;2.15;;
77262;SDS011;66373;52.334;4.806;2023-08-08T14:53:00;3.25;;;1.73;;
77262;SDS011;66373;52.334;4.806;2023-08-08T14:55:30;3.22;;;1.73;;